Terminal Aerodrome Forecast
Issued by NWS

Home | Current Version | Previous Version | Text Only | Print | Product List | Glossary On
Versions: 1 2 3 4 5 6 7 8 9 10 11 12 13
000
FTUS46 KLOX 051130
TAFLGB
TAF
KLGB 051130Z 0512/0612 VRB03KT P6SM BKN022
     FM051600 VRB03KT P6SM SKC
     FM051800 19009KT P6SM SKC
     FM060100 29009KT P6SM SKC
     FM060500 VRB03KT P6SM SKC
     FM060900 VRB03KT P6SM SKC=

USA.gov is the U.S. government's official web portal to all federal, state and local government web resources and services.